createdAt,value
2023-05-13T00:02:24.523Z,17734.03
2023-05-13T00:06:46.372Z,17734.03
2023-05-13T00:11:08.195Z,17731.97
2023-05-13T00:15:31.734Z,17777.00
2023-05-13T00:19:53.438Z,17787.22
2023-05-13T00:24:15.264Z,17842.44
2023-05-13T00:28:37.007Z,17721.75
2023-05-13T00:33:00.225Z,17738.13
2023-05-13T00:37:22.064Z,17709.47
2023-05-13T00:41:43.843Z,17672.66
2023-05-13T00:46:05.752Z,17711.53
2023-05-13T00:50:28.852Z,17631.75
2023-05-13T00:54:50.564Z,17682.88
2023-05-13T00:59:12.266Z,17682.88
2023-05-13T01:03:42.992Z,17719.72
2023-05-13T01:08:14.127Z,17744.25
2023-05-13T01:12:39.544Z,17723.81
2023-05-13T01:17:06.119Z,18124.75
2023-05-13T01:21:29.239Z,17852.69
2023-05-13T01:25:50.957Z,18100.22
2023-05-13T01:30:13.476Z,18286.38
2023-05-13T01:34:36.666Z,18546.22
2023-05-13T01:39:01.478Z,18417.31
2023-05-13T01:43:23.243Z,18100.22
2023-05-13T01:47:45.052Z,18490.97
2023-05-13T01:52:07.071Z,18472.56
2023-05-13T01:56:30.233Z,18448.00
2023-05-13T02:00:51.977Z,18347.75
2023-05-13T02:05:13.691Z,17995.88
2023-05-13T02:09:35.473Z,17836.31
2023-05-13T02:13:58.573Z,17795.41
2023-05-13T02:18:20.647Z,17922.22
2023-05-13T02:22:42.358Z,17740.16
2023-05-13T02:27:04.604Z,18151.34
2023-05-13T02:31:27.779Z,17969.28
2023-05-13T02:35:49.568Z,18312.97
2023-05-13T02:40:12.212Z,18040.88
2023-05-13T02:44:33.968Z,17873.13
2023-05-13T02:48:57.109Z,18047.03
2023-05-13T02:53:18.821Z,18243.41
2023-05-13T02:57:40.561Z,18222.97
2023-05-13T03:02:02.327Z,18382.53
2023-05-13T03:06:25.582Z,18327.31
2023-05-13T03:10:47.323Z,18104.31
2023-05-13T03:15:10.257Z,18061.34
2023-05-13T03:19:34.080Z,18417.31
2023-05-13T03:23:57.137Z,18585.09
2023-05-13T03:28:18.892Z,18597.38
2023-05-13T03:32:40.778Z,18235.25
2023-05-13T03:37:02.682Z,18824.50
2023-05-13T03:41:25.861Z,18513.50
2023-05-13T03:45:47.916Z,18529.84
2023-05-13T03:50:10.051Z,18384.59
2023-05-13T03:54:31.782Z,17957.00
2023-05-13T03:58:54.982Z,17772.91
2023-05-13T04:03:17.557Z,18128.84
2023-05-13T04:07:39.519Z,17879.28
2023-05-13T04:12:01.280Z,17973.38
2023-05-13T04:16:24.493Z,17785.16
2023-05-13T04:20:46.258Z,17725.84
2023-05-13T04:25:08.986Z,17809.72
2023-05-13T04:29:30.981Z,18157.50
2023-05-13T04:33:54.210Z,17860.84
2023-05-13T04:38:15.988Z,17750.41
2023-05-13T04:42:37.737Z,17844.50
2023-05-13T04:46:59.566Z,17842.44
2023-05-13T04:51:22.671Z,17789.25
2023-05-13T04:55:46.640Z,17801.53
2023-05-13T05:00:09.607Z,17772.91
2023-05-13T05:04:31.414Z,17832.22
2023-05-13T05:08:54.521Z,17793.34
2023-05-13T05:13:16.332Z,17811.75
2023-05-13T05:17:38.171Z,17869.03
2023-05-13T05:22:00.121Z,18100.22
2023-05-13T05:26:23.271Z,18415.28
2023-05-13T05:30:45.499Z,18791.75
2023-05-13T05:35:07.993Z,19442.50
2023-05-13T05:39:29.700Z,26896.88
2023-05-13T05:43:52.892Z,27938.66
2023-05-13T05:48:14.925Z,27852.50
2023-05-13T05:52:36.740Z,29206.34
2023-05-13T05:56:58.503Z,29682.38
2023-05-13T06:01:21.694Z,29865.00
2023-05-13T06:05:43.460Z,29380.75
2023-05-13T06:10:08.342Z,28480.13
2023-05-13T06:14:30.260Z,27563.34
2023-05-13T06:18:53.865Z,26123.94
2023-05-13T06:23:15.668Z,24818.31
2023-05-13T06:27:37.618Z,23877.78
2023-05-13T06:31:59.365Z,23502.84
2023-05-13T06:36:22.446Z,23084.94
2023-05-13T06:40:44.275Z,22808.41
2023-05-13T06:45:07.772Z,22374.22
2023-05-13T06:49:29.529Z,21815.13
2023-05-13T06:53:52.718Z,20879.41
2023-05-13T06:58:14.591Z,20404.47
2023-05-13T07:02:36.374Z,20676.75
2023-05-13T07:06:58.278Z,20727.91
2023-05-13T07:11:21.356Z,20791.38
2023-05-13T07:15:43.099Z,20891.69
2023-05-13T07:20:05.757Z,20963.34
2023-05-13T07:24:27.607Z,21022.72
2023-05-13T07:28:50.891Z,21161.94
2023-05-13T07:33:12.850Z,21094.38
2023-05-13T07:37:34.682Z,21065.72
2023-05-13T07:41:56.486Z,20951.06
2023-05-13T07:46:19.599Z,21190.63
2023-05-13T07:50:41.542Z,21180.38
2023-05-13T07:55:03.609Z,20924.44
2023-05-13T07:59:25.372Z,20887.59
2023-05-13T08:03:48.596Z,21227.47
2023-05-13T08:08:10.652Z,21309.38
2023-05-13T08:12:32.507Z,20662.41
2023-05-13T08:16:56.971Z,20085.16
2023-05-13T08:21:20.235Z,19864.09
2023-05-13T08:25:42.070Z,19825.22
2023-05-13T08:30:04.160Z,19643.06
2023-05-13T08:34:26.207Z,19706.50
2023-05-13T08:38:49.495Z,20564.16
2023-05-13T08:43:14.836Z,19825.22
2023-05-13T08:47:43.922Z,19872.28
2023-05-13T08:52:06.160Z,20840.50
2023-05-13T08:56:29.506Z,20717.69
2023-05-13T09:00:52.006Z,20965.41
2023-05-13T09:05:15.239Z,21063.66
2023-05-13T09:09:37.712Z,20752.47
2023-05-13T09:14:03.080Z,20994.06
2023-05-13T09:18:30.204Z,20944.94
2023-05-13T09:22:53.916Z,20822.09
2023-05-13T09:27:15.749Z,21153.75
2023-05-13T09:31:38.904Z,21292.97
2023-05-13T09:36:04.979Z,21563.25
2023-05-13T09:40:27.013Z,21677.94
2023-05-13T09:44:48.857Z,21841.75
2023-05-13T09:49:12.131Z,21761.88
2023-05-13T09:53:34.130Z,21858.13
2023-05-13T09:57:55.953Z,21929.81
2023-05-13T10:02:18.413Z,22009.66
2023-05-13T10:06:41.621Z,22058.81
2023-05-13T10:11:04.240Z,22128.44
2023-05-13T10:15:27.172Z,22118.22
2023-05-13T10:19:50.099Z,22218.56
2023-05-13T10:24:13.554Z,22247.22
2023-05-13T10:28:35.883Z,22134.59
2023-05-13T10:33:02.936Z,22282.03
2023-05-13T10:37:54.056Z,22237.00
2023-05-13T10:42:39.283Z,22269.75
2023-05-13T10:47:01.837Z,22353.72
2023-05-13T10:51:24.908Z,22214.47
2023-05-13T10:55:46.675Z,21356.47
2023-05-13T11:00:12.832Z,21096.44
2023-05-13T11:04:59.099Z,20253.00
2023-05-13T11:09:30.670Z,20279.59
2023-05-13T11:13:53.621Z,20031.94
2023-05-13T11:18:15.451Z,19929.59
2023-05-13T11:22:41.338Z,19900.94
2023-05-13T11:27:13.837Z,19866.16
2023-05-13T11:31:44.200Z,19661.47
2023-05-13T11:36:07.104Z,19569.38
2023-05-13T11:40:31.828Z,19436.34
2023-05-13T11:44:54.340Z,19325.84
2023-05-13T11:49:30.662Z,18697.63
2023-05-13T11:53:59.254Z,18562.59
2023-05-13T11:58:22.405Z,18536.00
2023-05-13T12:02:44.409Z,18394.81
2023-05-13T12:07:06.374Z,18341.63
2023-05-13T12:11:28.362Z,18306.84
2023-05-13T12:15:52.116Z,18288.44
2023-05-13T12:20:15.828Z,18327.31
2023-05-13T12:24:37.537Z,18388.69
2023-05-13T12:28:59.481Z,18427.56
2023-05-13T12:33:24.072Z,18499.16
2023-05-13T12:37:59.070Z,18636.25
2023-05-13T12:42:20.821Z,18767.19
2023-05-13T12:46:50.126Z,18873.59
2023-05-13T12:51:13.470Z,18928.84
2023-05-13T12:55:35.234Z,18742.66
2023-05-13T12:59:57.044Z,18759.03
2023-05-13T13:04:18.878Z,18836.78
2023-05-13T13:08:42.066Z,18930.91
2023-05-13T13:13:03.801Z,19156.00
2023-05-13T13:17:25.535Z,19487.53
2023-05-13T13:21:47.315Z,19264.44
2023-05-13T13:26:10.502Z,19937.78
2023-05-13T13:30:32.332Z,19937.78
2023-05-13T13:34:54.057Z,20036.03
2023-05-13T13:39:15.824Z,19851.81
2023-05-13T13:43:39.066Z,19945.97
2023-05-13T13:48:00.871Z,19929.59
2023-05-13T13:52:22.625Z,19878.44
2023-05-13T13:56:44.510Z,19745.38
2023-05-13T14:01:07.692Z,19757.66
2023-05-13T14:05:29.493Z,19692.19
2023-05-13T14:09:51.318Z,19681.94
2023-05-13T14:14:13.165Z,19577.56
2023-05-13T14:18:36.317Z,19724.94
2023-05-13T14:22:58.089Z,19585.75
2023-05-13T14:27:20.681Z,19655.34
2023-05-13T14:31:42.434Z,19569.38
2023-05-13T14:36:06.489Z,19557.09
2023-05-13T14:40:28.506Z,19507.97
2023-05-13T14:44:50.228Z,19507.97
2023-05-13T14:49:12.221Z,19164.19
2023-05-13T14:53:35.318Z,18986.16
2023-05-13T14:57:57.145Z,19031.16
2023-05-13T15:02:18.913Z,19065.97
2023-05-13T15:06:40.677Z,18767.19
2023-05-13T15:11:04.284Z,18738.56
2023-05-13T15:15:26.041Z,18906.34
2023-05-13T15:19:49.268Z,18943.19
2023-05-13T15:24:11.068Z,18949.31
2023-05-13T15:28:34.363Z,18943.19
2023-05-13T15:32:56.376Z,18904.31
2023-05-13T15:37:18.408Z,18873.59
2023-05-13T15:41:40.123Z,18947.28
2023-05-13T15:46:03.988Z,18980.00
2023-05-13T15:50:25.839Z,19063.91
2023-05-13T15:54:47.640Z,19088.47
2023-05-13T15:59:09.408Z,19002.53
2023-05-13T16:03:32.669Z,18969.78
2023-05-13T16:07:54.503Z,19000.47
2023-05-13T16:12:16.262Z,19008.66
2023-05-13T16:16:38.440Z,19049.59
2023-05-13T16:21:01.622Z,18984.09
2023-05-13T16:25:24.865Z,18959.53
2023-05-13T16:29:46.741Z,18939.09
2023-05-13T16:34:08.484Z,18939.09
2023-05-13T16:38:31.599Z,18863.38
2023-05-13T16:42:53.377Z,18742.66
2023-05-13T16:47:15.177Z,18714.00
2023-05-13T16:51:37.189Z,18679.22
2023-05-13T16:56:00.416Z,18681.25
2023-05-13T17:00:22.507Z,18638.28
2023-05-13T17:04:44.618Z,18650.56
2023-05-13T17:09:06.438Z,18716.06
2023-05-13T17:13:30.620Z,18628.06
2023-05-13T17:17:52.458Z,18554.41
2023-05-13T17:22:14.321Z,18578.97
2023-05-13T17:26:38.437Z,18585.09
2023-05-13T17:31:02.185Z,18583.06
2023-05-13T17:35:24.028Z,18529.84
2023-05-13T17:39:45.887Z,18533.94
2023-05-13T17:44:07.621Z,18468.47
2023-05-13T17:48:30.994Z,18513.50
2023-05-13T17:52:52.878Z,18480.75
2023-05-13T17:57:14.634Z,18476.66
2023-05-13T18:01:36.425Z,18505.31
2023-05-13T18:05:59.914Z,18513.50
2023-05-13T18:10:21.893Z,18495.06
2023-05-13T18:14:43.806Z,18495.06
2023-05-13T18:19:05.611Z,18454.16
2023-05-13T18:23:29.006Z,18398.91
2023-05-13T18:27:50.924Z,18394.81
2023-05-13T18:32:12.775Z,18435.75
2023-05-13T18:36:34.650Z,18370.28
2023-05-13T18:40:57.843Z,18386.63
2023-05-13T18:45:19.679Z,18394.81
2023-05-13T18:49:41.409Z,18302.75
2023-05-13T18:54:04.575Z,18263.88
2023-05-13T18:58:27.722Z,18267.97
2023-05-13T19:02:49.563Z,18261.84
2023-05-13T19:07:11.416Z,18253.66
2023-05-13T19:11:33.178Z,18220.91
2023-05-13T19:15:56.437Z,18194.31
2023-05-13T19:20:18.427Z,18171.81
2023-05-13T19:24:40.200Z,18159.53
2023-05-13T19:29:02.097Z,18089.97
2023-05-13T19:33:25.232Z,18020.44
2023-05-13T19:37:47.277Z,18034.75
2023-05-13T19:42:09.085Z,18030.66
2023-05-13T19:46:31.299Z,17985.66
2023-05-13T19:50:54.469Z,17967.25
2023-05-13T19:55:16.485Z,17999.97
2023-05-13T19:59:38.310Z,17952.91
2023-05-13T20:04:00.118Z,17918.13
2023-05-13T20:08:23.429Z,17922.22
2023-05-13T20:12:45.224Z,17907.91
2023-05-13T20:17:06.978Z,17940.66
2023-05-13T20:21:28.760Z,17862.91
2023-05-13T20:25:51.955Z,17899.72
2023-05-13T20:30:14.653Z,17891.53
2023-05-13T20:34:36.639Z,17871.09
2023-05-13T20:38:58.430Z,17850.63
2023-05-13T20:43:21.524Z,17897.69
2023-05-13T20:47:43.277Z,17899.72
2023-05-13T20:52:08.501Z,17852.69
2023-05-13T20:56:31.283Z,17862.91
2023-05-13T21:00:54.493Z,17842.44
2023-05-13T21:05:16.256Z,17834.25
2023-05-13T21:09:39.819Z,17809.72
2023-05-13T21:14:01.597Z,17783.13
2023-05-13T21:18:25.125Z,17785.16
2023-05-13T21:22:46.925Z,17807.69
2023-05-13T21:27:08.797Z,17832.22
2023-05-13T21:31:30.678Z,17805.63
2023-05-13T21:35:54.207Z,17756.53
2023-05-13T21:40:16.404Z,17779.03
2023-05-13T21:44:38.451Z,17760.63
2023-05-13T21:49:01.255Z,17805.63
2023-05-13T21:53:24.339Z,17781.09
2023-05-13T21:57:47.449Z,17768.81
2023-05-13T22:02:09.296Z,17725.84
2023-05-13T22:06:31.143Z,17750.41
2023-05-13T22:10:54.349Z,17738.13
2023-05-13T22:15:16.162Z,17729.94
2023-05-13T22:19:38.052Z,17738.13
2023-05-13T22:23:59.859Z,17754.50
2023-05-13T22:28:22.941Z,17758.56
2023-05-13T22:32:44.927Z,17723.81
2023-05-13T22:37:06.710Z,17723.81
2023-05-13T22:41:28.451Z,17711.53
2023-05-13T22:45:51.507Z,17731.97
2023-05-13T22:50:13.298Z,17713.56
2023-05-13T22:54:34.994Z,17725.84
2023-05-13T22:58:56.778Z,17744.25
2023-05-13T23:03:19.861Z,17697.22
2023-05-13T23:07:41.592Z,17693.13
2023-05-13T23:12:03.677Z,17721.75
2023-05-13T23:16:25.654Z,17705.38
2023-05-13T23:20:50.657Z,17686.97
2023-05-13T23:25:12.966Z,17703.34
2023-05-13T23:29:34.764Z,17703.34
2023-05-13T23:33:56.768Z,17705.38
2023-05-13T23:38:19.931Z,17674.72
2023-05-13T23:42:41.800Z,17693.13
2023-05-13T23:47:03.684Z,17668.56
2023-05-13T23:51:25.426Z,17682.88
2023-05-13T23:55:48.617Z,17672.66
